Arlington, GA

8:03 AM EST on November 12, 2019 (GMT -0500)
Rockmine Road | | Change Station
Active Advisory: Freeze Warning

Elev 348 ft 31.46 °N, 84.82 °W | Updated 26 seconds ago

Overcast
Overcast
60.4 °F
Feels Like 60.4 °F
N
2.9
Wind Variable Wind from West
Gusts 4.5 mph

Today
High -- | Low -- °F
--% Chance of Precip.
Yesterday
High -- | Low -- °F
Precip. -- in
Pressure 29.95 in
Visibility 4.0 miles
Clouds Few 2900 ft
Mostly Cloudy 6000 ft
Overcast 8500 ft
Dew Point 60 °F
Humidity 98%
Rainfall 0.33 in
Snow Depth Not available.
7:03 AM 5:41 PM
Full, 100% visible
METAR KABY 121253Z 24004KT 4SM RA FEW029 BKN060 OVC085 16/13 A2995 RMK AO2 RAB08 SLP141 P0003 T01560128
Pressure 29.95 in
Visibility 4.0 miles
Clouds Few 2900 ft
Mostly Cloudy 6000 ft
Overcast 8500 ft
Dew Point 60 °F
Humidity 98%
Rainfall 0.33 in
Snow Depth Not available.
7:03 AM 5:41 PM
Full, 100% visible
METAR KABY 121253Z 24004KT 4SM RA FEW029 BKN060 OVC085 16/13 A2995 RMK AO2 RAB08 SLP141 P0003 T01560128

Get Your Daily Forecast Email!

Thanks for signing up!

Be on the lookout for a verification email in your inbox.

You'll start receiving severe weather alerts in your inbox..

×

10-Day Weather Forecast

Almanac

Astronomy

Nov. 12, 2019 Rise Set
Actual Time
Civil Twilight
Nautical Twilight
Astronomical Twilight
Moon
Length of Visible Light
Length of Day
Tomorrow will be .
, % of the Moon is Illuminated

Today's Extremes

State Highs State Lows

Community

WunderPhotos

Category 6

Welcome to Category 6. This is the collective home for Weather Underground's featured writeups by Dr. Jeff Masters (right), Bob Henson (left), Chris Burt, and other regular contributors.

Nearby

Air Quality

  Air Quality AQ Index Pollutant
Not available.

Snow Depth

Station Depth Elevation

Earthquake Activity

City Distance Mag. Time & Date
Minimum magnitude displayed is 2.5.

Coastal Water Temperatures

Place Temperature

Stations

Nearby Weather Stations

Station Location Temp. Windchill Dew Point Humidity Wind Precip. Elev Updated Type
                   

Watches & Warnings

Freeze Warning
Issued: 12:51 AM CST Nov. 12, 2019 – National Weather Service

... Freeze warning in effect from 11 PM EST /10 PM CST/ this
evening to 9 am EST /8 am CST/ Wednesday...

The National Weather Service in Tallahassee has issued a freeze
warning, which is in effect from 11 PM EST /10 PM CST/ this
evening to 9 am EST /8 am CST/ Wednesday. The freeze watch is no
longer in effect.

* Temperature... lows 27 to 32.

* Impacts... freeze conditions could kill crops and other
sensitive vegetation.

Precautionary/preparedness actions...

A freeze warning means sub-freezing temperatures are imminent or
highly likely. These conditions will kill crops and other
sensitive vegetation.